createdAt,value
2023-06-30T00:00:09.090Z,34.90
2023-06-30T00:01:09.135Z,34.90
2023-06-30T00:02:09.131Z,34.93
2023-06-30T00:03:09.230Z,34.92
2023-06-30T00:04:09.153Z,34.90
2023-06-30T00:05:09.108Z,34.95
2023-06-30T00:06:09.112Z,34.98
2023-06-30T00:07:09.113Z,35.00
2023-06-30T00:08:09.089Z,34.95
2023-06-30T00:09:09.097Z,35.00
2023-06-30T00:10:09.096Z,34.98
2023-06-30T00:11:09.128Z,35.01
2023-06-30T00:12:09.081Z,34.98
2023-06-30T00:13:09.067Z,34.98
2023-06-30T00:14:09.074Z,35.06
2023-06-30T00:15:09.082Z,35.02
2023-06-30T00:16:09.138Z,35.05
2023-06-30T00:17:09.079Z,35.04
2023-06-30T00:18:09.115Z,35.07
2023-06-30T00:19:09.103Z,35.08
2023-06-30T00:20:09.111Z,35.17
2023-06-30T00:21:09.082Z,35.07
2023-06-30T00:22:09.122Z,35.08
2023-06-30T00:23:09.093Z,35.13
2023-06-30T00:24:09.052Z,35.10
2023-06-30T00:25:09.065Z,35.11
2023-06-30T00:26:09.061Z,35.19
2023-06-30T00:27:09.044Z,35.17
2023-06-30T00:28:09.037Z,35.20
2023-06-30T00:29:09.058Z,35.18
2023-06-30T00:30:09.092Z,35.17
2023-06-30T00:31:09.178Z,35.20
2023-06-30T00:32:09.090Z,35.24
2023-06-30T00:33:09.106Z,35.27
2023-06-30T00:34:09.079Z,35.23
2023-06-30T00:35:09.205Z,35.25
2023-06-30T00:36:09.123Z,35.27
2023-06-30T00:37:09.131Z,35.23
2023-06-30T00:38:09.237Z,35.28
2023-06-30T00:39:09.186Z,35.27
2023-06-30T00:40:09.215Z,35.31
2023-06-30T00:41:09.170Z,35.29
2023-06-30T00:42:09.162Z,35.29
2023-06-30T00:43:09.175Z,35.34
2023-06-30T00:44:09.171Z,35.28
2023-06-30T00:45:09.164Z,35.28
2023-06-30T00:46:09.133Z,35.33
2023-06-30T00:47:09.216Z,35.32
2023-06-30T00:48:09.170Z,35.30
2023-06-30T00:49:09.129Z,35.33
2023-06-30T00:50:09.134Z,35.32
2023-06-30T00:51:09.097Z,35.37
2023-06-30T00:52:09.093Z,35.38
2023-06-30T00:53:09.102Z,35.36
2023-06-30T00:54:09.097Z,35.40
2023-06-30T00:55:09.247Z,35.38
2023-06-30T00:56:09.056Z,35.40
2023-06-30T00:57:09.055Z,35.36
2023-06-30T00:58:09.050Z,35.40
2023-06-30T00:59:09.016Z,35.43
2023-06-30T01:00:09.056Z,35.39
2023-06-30T01:01:08.978Z,35.40
2023-06-30T01:02:09.047Z,35.43
2023-06-30T01:03:09.118Z,35.39
2023-06-30T01:04:09.158Z,35.45
2023-06-30T01:05:09.013Z,35.51
2023-06-30T01:06:09.050Z,35.50
2023-06-30T01:07:09.022Z,35.43
2023-06-30T01:08:08.964Z,35.50
2023-06-30T01:09:08.936Z,35.46
2023-06-30T01:10:08.980Z,35.54
2023-06-30T01:11:08.937Z,35.50
2023-06-30T01:12:08.934Z,35.52
2023-06-30T01:13:08.981Z,35.54
2023-06-30T01:14:08.975Z,35.56
2023-06-30T01:15:08.973Z,35.55
2023-06-30T01:16:09.001Z,35.54
2023-06-30T01:17:08.968Z,35.54
2023-06-30T01:18:08.965Z,35.58
2023-06-30T01:19:08.984Z,35.54
2023-06-30T01:20:09.022Z,35.59
2023-06-30T01:21:09.017Z,35.55
2023-06-30T01:22:08.994Z,35.57
2023-06-30T01:23:08.979Z,35.61
2023-06-30T01:24:08.992Z,35.63
2023-06-30T01:25:08.970Z,35.70
2023-06-30T01:26:09.037Z,35.66
2023-06-30T01:27:08.991Z,35.62
2023-06-30T01:28:08.958Z,35.71
2023-06-30T01:29:08.974Z,35.69
2023-06-30T01:30:08.915Z,35.74
2023-06-30T01:31:09.002Z,35.71
2023-06-30T01:32:08.912Z,35.73
2023-06-30T01:33:08.954Z,35.71
2023-06-30T01:34:08.908Z,35.65
2023-06-30T01:35:08.924Z,35.71
2023-06-30T01:36:08.874Z,35.67
2023-06-30T01:37:08.891Z,35.69
2023-06-30T01:38:08.857Z,35.68
2023-06-30T01:39:08.842Z,35.70
2023-06-30T01:40:08.882Z,35.67
2023-06-30T01:41:08.858Z,35.70
2023-06-30T01:42:08.832Z,35.71
2023-06-30T01:43:08.894Z,35.73
2023-06-30T01:44:08.865Z,35.77
2023-06-30T01:45:08.825Z,35.72
2023-06-30T01:46:08.898Z,35.78
2023-06-30T01:47:08.761Z,35.77
2023-06-30T01:48:08.753Z,35.72
2023-06-30T01:49:08.758Z,35.76
2023-06-30T01:50:08.756Z,35.77
2023-06-30T01:51:08.747Z,35.74
2023-06-30T01:52:08.731Z,35.76
2023-06-30T01:53:08.723Z,35.72
2023-06-30T01:54:08.716Z,35.76
2023-06-30T01:55:08.700Z,35.81
2023-06-30T01:56:08.694Z,35.82
2023-06-30T01:57:08.669Z,35.82
2023-06-30T01:58:08.685Z,35.87
2023-06-30T01:59:08.657Z,35.81
2023-06-30T02:00:08.655Z,35.82
2023-06-30T02:01:08.686Z,35.77
2023-06-30T02:02:08.654Z,35.81
2023-06-30T02:03:08.774Z,35.74
2023-06-30T02:04:08.626Z,35.79
2023-06-30T02:05:08.685Z,35.77
2023-06-30T02:06:08.611Z,35.79
2023-06-30T02:07:09.437Z,35.84
2023-06-30T02:08:08.605Z,35.89
2023-06-30T02:09:08.666Z,35.88
2023-06-30T02:10:08.598Z,35.87
2023-06-30T02:11:08.562Z,35.83
2023-06-30T02:12:08.573Z,35.88
2023-06-30T02:13:08.556Z,35.90
2023-06-30T02:14:08.608Z,35.85
2023-06-30T02:15:08.578Z,35.84
2023-06-30T02:16:08.584Z,35.84
2023-06-30T02:17:08.530Z,35.87
2023-06-30T02:18:08.513Z,35.88
2023-06-30T02:19:08.503Z,35.84
2023-06-30T02:20:08.530Z,35.83
2023-06-30T02:21:08.502Z,35.91
2023-06-30T02:22:08.502Z,35.91
2023-06-30T02:23:08.525Z,35.86
2023-06-30T02:24:08.510Z,35.88
2023-06-30T02:25:08.500Z,35.88
2023-06-30T02:26:08.481Z,35.91
2023-06-30T02:27:08.482Z,35.86
2023-06-30T02:28:08.464Z,35.86
2023-06-30T02:29:08.533Z,35.88
2023-06-30T02:30:08.495Z,35.87
2023-06-30T02:31:08.537Z,35.89
2023-06-30T02:32:08.455Z,35.86
2023-06-30T02:33:08.445Z,35.91
2023-06-30T02:34:08.438Z,35.90
2023-06-30T02:35:08.594Z,35.93
2023-06-30T02:36:08.468Z,35.95
2023-06-30T02:37:08.420Z,35.92
2023-06-30T02:38:08.435Z,36.00
2023-06-30T02:39:08.400Z,35.96
2023-06-30T02:40:08.444Z,35.98
2023-06-30T02:41:08.427Z,35.92
2023-06-30T02:42:08.414Z,35.95
2023-06-30T02:43:08.416Z,35.91
2023-06-30T02:44:08.388Z,35.95
2023-06-30T02:45:08.373Z,35.92
2023-06-30T02:46:08.423Z,35.98
2023-06-30T02:47:08.397Z,35.91
2023-06-30T02:48:08.342Z,35.94
2023-06-30T02:49:08.354Z,36.00
2023-06-30T02:50:08.443Z,35.98
2023-06-30T02:51:08.348Z,36.06
2023-06-30T02:52:08.381Z,36.03
2023-06-30T02:53:08.360Z,36.04
2023-06-30T02:54:08.372Z,36.03
2023-06-30T02:55:08.386Z,36.01
2023-06-30T02:56:08.348Z,36.00
2023-06-30T02:57:08.374Z,36.03
2023-06-30T02:58:08.390Z,36.01
2023-06-30T02:59:08.347Z,36.01
2023-06-30T03:00:08.361Z,36.05
2023-06-30T03:01:08.391Z,36.03
2023-06-30T03:02:08.549Z,36.01
2023-06-30T03:03:08.453Z,36.06
2023-06-30T03:04:08.564Z,36.03
2023-06-30T03:05:08.379Z,36.02
2023-06-30T03:06:08.341Z,36.08
2023-06-30T03:07:08.395Z,36.02
2023-06-30T03:08:08.338Z,36.05
2023-06-30T03:09:08.403Z,36.01
2023-06-30T03:10:08.356Z,36.02
2023-06-30T03:11:08.385Z,35.99
2023-06-30T03:12:08.318Z,36.04
2023-06-30T03:13:08.423Z,36.02
2023-06-30T03:14:08.331Z,36.01
2023-06-30T03:15:08.356Z,36.04
2023-06-30T03:16:08.321Z,36.04
2023-06-30T03:17:08.428Z,36.08
2023-06-30T03:18:08.354Z,36.09
2023-06-30T03:19:08.319Z,36.08
2023-06-30T03:20:08.365Z,36.06
2023-06-30T03:21:08.283Z,36.03
2023-06-30T03:22:08.263Z,36.04
2023-06-30T03:23:08.283Z,36.06
2023-06-30T03:24:08.264Z,36.10
2023-06-30T03:25:08.264Z,36.05
2023-06-30T03:26:08.362Z,36.01
2023-06-30T03:27:08.312Z,36.05
2023-06-30T03:28:08.264Z,36.10
2023-06-30T03:29:08.259Z,36.11
2023-06-30T03:30:08.279Z,36.13
2023-06-30T03:31:08.341Z,36.09
2023-06-30T03:32:08.297Z,36.10
2023-06-30T03:33:08.274Z,36.08
2023-06-30T03:34:08.349Z,36.10
2023-06-30T03:35:08.345Z,36.07
2023-06-30T03:36:08.287Z,36.11
2023-06-30T03:37:08.244Z,36.08
2023-06-30T03:39:27.134Z,36.18
2023-06-30T03:40:27.242Z,36.18
2023-06-30T03:41:27.145Z,36.13
2023-06-30T03:42:27.178Z,36.11
2023-06-30T03:43:27.189Z,36.10
2023-06-30T03:44:27.159Z,36.09
2023-06-30T03:45:27.215Z,36.11
2023-06-30T03:46:27.211Z,36.08
2023-06-30T03:47:27.240Z,36.07
2023-06-30T03:48:27.189Z,36.09
2023-06-30T03:49:27.202Z,36.13
2023-06-30T03:50:27.199Z,36.09
2023-06-30T03:51:27.190Z,36.16
2023-06-30T03:52:27.201Z,36.15
2023-06-30T03:53:27.200Z,36.14
2023-06-30T03:54:27.211Z,36.16
2023-06-30T03:55:27.293Z,36.14
2023-06-30T03:56:27.198Z,36.18
2023-06-30T03:57:27.237Z,36.11
2023-06-30T03:58:27.200Z,36.14
2023-06-30T03:59:27.230Z,36.17
2023-06-30T04:00:27.249Z,36.15
2023-06-30T04:01:27.212Z,36.17
2023-06-30T04:02:27.356Z,36.21
2023-06-30T04:03:28.163Z,36.15
2023-06-30T04:04:27.359Z,36.16
2023-06-30T04:05:27.243Z,36.20
2023-06-30T04:06:27.226Z,36.23
2023-06-30T04:07:27.268Z,36.20
2023-06-30T04:08:27.394Z,36.22
2023-06-30T04:09:27.255Z,36.20
2023-06-30T04:10:27.264Z,36.23
2023-06-30T04:11:27.243Z,36.22
2023-06-30T04:12:27.237Z,36.20
2023-06-30T04:13:27.250Z,36.19
2023-06-30T04:14:27.258Z,36.24
2023-06-30T04:15:27.716Z,36.19
2023-06-30T04:16:27.307Z,36.26
2023-06-30T04:17:27.298Z,36.28
2023-06-30T04:18:27.264Z,36.31
2023-06-30T04:19:27.275Z,36.30
2023-06-30T04:20:27.275Z,36.28
2023-06-30T04:21:27.275Z,36.25
2023-06-30T04:22:27.277Z,36.23
2023-06-30T04:23:27.297Z,36.24
2023-06-30T04:24:27.314Z,36.24
2023-06-30T04:25:27.321Z,36.19
2023-06-30T04:26:27.307Z,36.24
2023-06-30T04:27:27.330Z,36.32
2023-06-30T04:28:27.320Z,36.23
2023-06-30T04:29:27.323Z,36.30
2023-06-30T04:30:27.337Z,36.31
2023-06-30T04:31:27.374Z,36.31
2023-06-30T04:32:27.359Z,36.32
2023-06-30T04:33:27.327Z,36.33
2023-06-30T04:34:27.317Z,36.29
2023-06-30T04:35:27.512Z,36.32
2023-06-30T04:36:27.324Z,36.31
2023-06-30T04:37:27.335Z,36.30
2023-06-30T04:38:27.355Z,36.33
2023-06-30T04:39:27.336Z,36.33
2023-06-30T04:40:27.397Z,36.32
2023-06-30T04:41:27.344Z,36.31
2023-06-30T04:42:27.342Z,36.33
2023-06-30T04:43:27.352Z,36.38
2023-06-30T04:44:27.350Z,36.32
2023-06-30T04:45:27.361Z,36.36
2023-06-30T04:46:27.402Z,36.38
2023-06-30T04:47:27.375Z,36.39
2023-06-30T04:48:27.380Z,36.33
2023-06-30T04:49:27.394Z,36.39
2023-06-30T04:50:27.399Z,36.36
2023-06-30T04:51:27.415Z,36.33
2023-06-30T04:52:27.443Z,36.36
2023-06-30T04:53:27.419Z,36.38
2023-06-30T04:54:27.406Z,36.43
2023-06-30T04:55:27.430Z,36.40
2023-06-30T04:56:27.396Z,36.38
2023-06-30T04:57:27.388Z,36.45
2023-06-30T04:58:27.411Z,36.41
2023-06-30T04:59:27.388Z,36.43
2023-06-30T05:00:27.411Z,36.41
2023-06-30T05:01:27.451Z,36.41
2023-06-30T05:02:27.453Z,36.44
2023-06-30T05:03:27.450Z,36.41
2023-06-30T05:04:27.446Z,36.40
2023-06-30T05:05:27.420Z,36.43
2023-06-30T05:06:27.460Z,36.45
2023-06-30T05:07:27.477Z,36.48
2023-06-30T05:08:27.463Z,36.45
2023-06-30T05:09:27.427Z,36.44
2023-06-30T05:10:27.435Z,36.45
2023-06-30T05:11:27.423Z,36.40
2023-06-30T05:12:27.447Z,36.45
2023-06-30T05:13:27.426Z,36.44
2023-06-30T05:14:27.437Z,36.47
2023-06-30T05:15:27.540Z,36.50
2023-06-30T05:16:27.498Z,36.52
2023-06-30T05:17:27.659Z,36.57
2023-06-30T05:18:27.456Z,36.56
2023-06-30T05:19:27.465Z,36.48
2023-06-30T05:20:27.450Z,36.56
2023-06-30T05:21:27.471Z,36.53
2023-06-30T05:22:27.491Z,36.53
2023-06-30T05:23:27.558Z,36.58
2023-06-30T05:24:27.447Z,36.57
2023-06-30T05:25:27.476Z,36.54
2023-06-30T05:26:27.442Z,36.58
2023-06-30T05:27:27.638Z,36.60
2023-06-30T05:28:27.445Z,36.65
2023-06-30T05:29:27.769Z,36.58
2023-06-30T05:30:27.468Z,36.62
2023-06-30T05:31:27.497Z,36.59
2023-06-30T05:32:27.469Z,36.65
2023-06-30T05:33:27.471Z,36.56
2023-06-30T05:34:27.494Z,36.57
2023-06-30T05:35:27.460Z,36.56
2023-06-30T05:36:27.493Z,36.56
2023-06-30T05:37:27.603Z,36.57
2023-06-30T05:38:27.573Z,36.59
2023-06-30T05:39:27.539Z,36.78
2023-06-30T05:40:27.585Z,36.54
2023-06-30T05:41:27.652Z,36.73
2023-06-30T05:42:27.676Z,37.12
2023-06-30T05:43:27.703Z,37.09
2023-06-30T05:44:27.819Z,37.27
2023-06-30T05:45:27.781Z,37.38
2023-06-30T05:46:27.868Z,37.55
2023-06-30T05:47:27.906Z,37.63
2023-06-30T05:48:27.902Z,37.61
2023-06-30T05:49:28.271Z,37.76
2023-06-30T05:50:28.048Z,37.58
2023-06-30T05:51:28.116Z,37.62
2023-06-30T05:52:28.350Z,37.66
2023-06-30T05:53:28.233Z,37.75
2023-06-30T05:54:28.372Z,37.86
2023-06-30T05:55:28.372Z,37.88
2023-06-30T05:56:28.421Z,37.85
2023-06-30T05:57:28.522Z,38.00
2023-06-30T05:58:28.744Z,38.07
2023-06-30T05:59:28.758Z,38.22
2023-06-30T06:00:28.662Z,38.22
2023-06-30T06:01:28.795Z,38.40
2023-06-30T06:02:28.911Z,38.30
2023-06-30T06:03:28.945Z,38.61
2023-06-30T06:04:29.265Z,38.80
2023-06-30T06:05:29.104Z,39.15
2023-06-30T06:06:29.150Z,39.21
2023-06-30T06:07:29.067Z,39.54
2023-06-30T06:08:29.112Z,39.54
2023-06-30T06:09:29.227Z,39.63
2023-06-30T06:10:29.184Z,39.34
2023-06-30T06:11:29.223Z,39.49
2023-06-30T06:12:29.309Z,39.40
2023-06-30T06:13:29.383Z,39.42
2023-06-30T06:14:29.384Z,39.35
2023-06-30T06:15:29.426Z,38.89
2023-06-30T06:16:29.485Z,39.14
2023-06-30T06:17:29.541Z,39.85
2023-06-30T06:18:29.537Z,40.30
2023-06-30T06:19:29.589Z,40.32
2023-06-30T06:20:30.638Z,40.18
2023-06-30T06:21:29.594Z,40.02
2023-06-30T06:22:29.581Z,40.39
2023-06-30T06:23:29.585Z,40.26
2023-06-30T06:24:29.739Z,40.75
2023-06-30T06:25:29.765Z,40.85
2023-06-30T06:26:29.756Z,40.62
2023-06-30T06:27:29.801Z,40.77
2023-06-30T06:28:29.864Z,40.33
2023-06-30T06:29:29.902Z,40.16
2023-06-30T06:30:30.016Z,40.40
2023-06-30T06:31:30.115Z,40.69
2023-06-30T06:32:30.255Z,41.03
2023-06-30T06:33:30.126Z,40.52
2023-06-30T06:34:30.153Z,41.02
2023-06-30T06:35:30.171Z,40.82
2023-06-30T06:36:31.863Z,40.92
2023-06-30T06:37:30.166Z,40.76
2023-06-30T06:38:30.146Z,40.95
2023-06-30T06:39:30.158Z,41.01
2023-06-30T06:40:30.124Z,41.18
2023-06-30T06:41:30.140Z,41.31
2023-06-30T06:42:30.127Z,41.26
2023-06-30T06:43:30.149Z,41.42
2023-06-30T06:44:30.102Z,40.65
2023-06-30T06:45:30.114Z,40.06
2023-06-30T06:46:30.141Z,39.58
2023-06-30T06:47:30.175Z,39.12
2023-06-30T06:48:30.250Z,38.91
2023-06-30T06:49:30.204Z,38.73
2023-06-30T06:50:30.402Z,38.74
2023-06-30T06:51:30.307Z,38.44
2023-06-30T06:52:30.315Z,38.56
2023-06-30T06:53:30.368Z,38.62
2023-06-30T06:54:30.449Z,38.46
2023-06-30T06:55:30.437Z,38.39
2023-06-30T06:56:30.482Z,38.36
2023-06-30T06:57:30.466Z,38.29
2023-06-30T06:58:30.436Z,38.08
2023-06-30T06:59:30.439Z,38.06
2023-06-30T07:00:30.441Z,38.08
2023-06-30T07:01:30.470Z,38.06
2023-06-30T07:02:30.433Z,38.11
2023-06-30T07:03:30.443Z,38.12
2023-06-30T07:04:30.420Z,38.19
2023-06-30T07:05:30.483Z,38.16
2023-06-30T07:06:30.406Z,38.13
2023-06-30T07:07:33.178Z,38.18
2023-06-30T07:08:30.410Z,38.21
2023-06-30T07:09:30.375Z,38.24
2023-06-30T07:10:30.385Z,38.17
2023-06-30T07:11:30.395Z,38.21
2023-06-30T07:12:30.389Z,38.26
2023-06-30T07:13:30.457Z,38.20
2023-06-30T07:14:30.385Z,38.18
2023-06-30T07:15:30.361Z,38.09
2023-06-30T07:16:30.427Z,38.08
2023-06-30T07:17:30.417Z,38.14
2023-06-30T07:18:30.482Z,38.16
2023-06-30T07:19:30.372Z,38.20
2023-06-30T07:20:30.362Z,38.16
2023-06-30T07:21:30.342Z,38.21
2023-06-30T07:22:30.333Z,38.23
2023-06-30T07:23:30.333Z,38.41
2023-06-30T07:25:30.340Z,38.29
2023-06-30T07:26:30.324Z,38.34
2023-06-30T07:27:30.351Z,38.34
2023-06-30T07:28:30.309Z,38.36
2023-06-30T07:29:30.308Z,38.24
2023-06-30T07:30:30.326Z,38.29
2023-06-30T07:31:30.403Z,38.32
2023-06-30T07:32:30.419Z,38.27
2023-06-30T07:33:30.454Z,38.24
2023-06-30T07:34:30.525Z,38.23
2023-06-30T07:35:30.564Z,38.34
2023-06-30T07:36:30.615Z,38.35
2023-06-30T07:37:30.718Z,38.47
2023-06-30T07:38:30.769Z,38.43
2023-06-30T07:39:31.996Z,40.01
2023-06-30T07:40:38.477Z,39.93
2023-06-30T07:41:31.787Z,40.99
2023-06-30T07:42:30.704Z,41.52
2023-06-30T07:43:31.450Z,41.86
2023-06-30T07:44:31.760Z,42.17
2023-06-30T07:45:30.925Z,42.70
2023-06-30T07:46:30.964Z,43.22
2023-06-30T07:47:31.009Z,43.82
2023-06-30T07:48:30.886Z,43.80
2023-06-30T07:49:31.013Z,44.04
2023-06-30T07:50:31.171Z,44.77
2023-06-30T07:51:30.849Z,45.03
2023-06-30T07:52:30.966Z,45.26
2023-06-30T07:53:30.976Z,45.52
2023-06-30T07:54:30.922Z,45.78
2023-06-30T07:55:31.002Z,45.92
2023-06-30T07:56:31.048Z,46.25
2023-06-30T07:57:30.966Z,46.40
2023-06-30T07:58:31.024Z,46.52
2023-06-30T07:59:31.019Z,46.76
2023-06-30T08:00:31.318Z,46.77
2023-06-30T08:01:31.065Z,46.47
2023-06-30T08:02:31.158Z,46.26
2023-06-30T08:03:31.388Z,45.93
2023-06-30T08:04:31.312Z,45.71
2023-06-30T08:05:31.243Z,45.58
2023-06-30T08:06:31.173Z,45.26
2023-06-30T08:07:49.539Z,44.96
2023-06-30T08:08:32.323Z,44.74
2023-06-30T08:09:31.205Z,44.57
2023-06-30T08:10:31.222Z,44.47
2023-06-30T08:11:31.212Z,44.20
2023-06-30T08:12:31.241Z,43.94
2023-06-30T08:13:31.237Z,43.78
2023-06-30T08:14:31.237Z,43.67
2023-06-30T08:15:31.258Z,43.66
2023-06-30T08:16:31.290Z,43.54
2023-06-30T08:17:39.199Z,43.55
2023-06-30T08:18:34.762Z,43.49
2023-06-30T08:19:45.233Z,43.48
2023-06-30T08:20:31.309Z,43.34
2023-06-30T08:21:31.305Z,43.27
2023-06-30T08:22:31.270Z,43.20
2023-06-30T08:23:31.247Z,43.23
2023-06-30T08:24:31.254Z,43.25
2023-06-30T08:25:31.288Z,43.39
2023-06-30T08:26:31.256Z,43.35
2023-06-30T08:27:31.264Z,43.37
2023-06-30T08:28:31.274Z,43.24
2023-06-30T08:29:31.277Z,43.07
2023-06-30T08:30:31.286Z,42.97
2023-06-30T08:31:31.309Z,42.97
2023-06-30T08:32:31.298Z,42.83
2023-06-30T08:34:31.262Z,42.43
2023-06-30T08:35:31.255Z,42.23
2023-06-30T08:36:31.259Z,42.21
2023-06-30T08:37:31.264Z,42.22
2023-06-30T08:38:31.260Z,42.16
2023-06-30T08:39:31.258Z,42.17
2023-06-30T08:40:31.289Z,42.17
2023-06-30T08:41:31.329Z,42.15
2023-06-30T08:42:31.240Z,42.10
2023-06-30T08:43:31.254Z,42.12
2023-06-30T08:44:31.233Z,42.13
2023-06-30T08:45:31.242Z,42.10
2023-06-30T08:46:31.255Z,42.11
2023-06-30T08:47:31.246Z,42.18
2023-06-30T08:48:31.246Z,42.13
2023-06-30T08:49:31.266Z,42.23
2023-06-30T08:50:31.257Z,42.20
2023-06-30T08:51:31.227Z,42.02
2023-06-30T08:52:31.278Z,42.07
2023-06-30T08:53:31.216Z,41.93
2023-06-30T08:54:31.233Z,41.96
2023-06-30T08:55:31.228Z,42.00
2023-06-30T08:56:31.232Z,41.92
2023-06-30T08:57:31.215Z,41.97
2023-06-30T08:58:31.232Z,41.92
2023-06-30T08:59:31.219Z,41.92
2023-06-30T09:00:31.251Z,41.89
2023-06-30T09:01:31.249Z,41.88
2023-06-30T09:02:31.289Z,41.86
2023-06-30T09:03:31.254Z,41.82
2023-06-30T09:04:31.276Z,41.85
2023-06-30T09:05:31.207Z,41.88
2023-06-30T09:06:31.214Z,41.90
2023-06-30T09:07:31.263Z,41.93
2023-06-30T09:08:31.213Z,41.96
2023-06-30T09:09:31.230Z,41.96
2023-06-30T09:10:31.220Z,42.01
2023-06-30T09:11:31.224Z,42.06
2023-06-30T09:12:31.225Z,42.07
2023-06-30T09:13:31.252Z,42.08
2023-06-30T09:14:31.249Z,42.14
2023-06-30T09:15:31.240Z,42.09
2023-06-30T09:16:31.276Z,42.13
2023-06-30T09:17:31.304Z,42.12
2023-06-30T09:18:31.273Z,42.11
2023-06-30T09:19:31.269Z,42.08
2023-06-30T09:20:31.302Z,42.09
2023-06-30T09:21:31.337Z,42.09
2023-06-30T09:22:51.758Z,42.09
2023-06-30T09:23:32.301Z,42.10
2023-06-30T09:24:31.287Z,42.07
2023-06-30T09:25:31.287Z,42.15
2023-06-30T09:26:32.469Z,42.11
2023-06-30T09:27:31.286Z,42.12
2023-06-30T09:28:31.293Z,42.13
2023-06-30T09:29:31.293Z,42.11
2023-06-30T09:30:31.310Z,42.08
2023-06-30T09:31:31.327Z,42.11
2023-06-30T09:32:31.336Z,42.23
2023-06-30T09:33:31.294Z,42.23
2023-06-30T09:34:31.306Z,42.20
2023-06-30T09:35:31.316Z,42.21
2023-06-30T09:36:31.318Z,42.17
2023-06-30T09:37:31.364Z,42.17
2023-06-30T09:38:31.321Z,42.15
2023-06-30T09:39:31.328Z,42.12
2023-06-30T09:40:31.334Z,42.03
2023-06-30T09:41:31.342Z,42.04
2023-06-30T09:42:31.350Z,42.00
2023-06-30T09:43:31.366Z,41.96
2023-06-30T09:44:31.351Z,41.95
2023-06-30T09:45:31.352Z,41.90
2023-06-30T09:46:31.457Z,41.82
2023-06-30T09:47:31.399Z,41.81
2023-06-30T09:48:31.375Z,41.82
2023-06-30T09:49:31.527Z,41.75
2023-06-30T09:50:31.400Z,41.85
2023-06-30T09:51:31.397Z,41.82
2023-06-30T09:52:31.367Z,41.80
2023-06-30T09:53:31.364Z,41.82
2023-06-30T09:55:31.402Z,41.92
2023-06-30T09:56:31.438Z,41.86
2023-06-30T09:57:31.473Z,41.89
2023-06-30T09:58:31.439Z,41.86
2023-06-30T09:59:31.374Z,41.84
2023-06-30T10:00:36.374Z,41.82
2023-06-30T10:01:32.413Z,41.76
2023-06-30T10:02:31.478Z,41.74
2023-06-30T10:03:31.492Z,41.72
2023-06-30T10:04:31.385Z,41.66
2023-06-30T10:05:31.458Z,41.63
2023-06-30T10:06:31.388Z,41.66
2023-06-30T10:07:31.413Z,41.64
2023-06-30T10:08:31.387Z,41.69
2023-06-30T10:09:31.456Z,41.65
2023-06-30T10:10:31.564Z,41.57
2023-06-30T10:11:31.390Z,41.51
2023-06-30T10:12:31.394Z,41.49
2023-06-30T10:13:31.416Z,41.47
2023-06-30T10:14:31.406Z,41.47
2023-06-30T10:15:31.402Z,41.52
2023-06-30T10:16:31.475Z,41.44
2023-06-30T10:17:31.466Z,41.47
2023-06-30T10:18:31.433Z,41.48
2023-06-30T10:19:31.411Z,41.42
2023-06-30T10:21:32.493Z,41.49
2023-06-30T10:22:31.413Z,41.41
2023-06-30T10:23:31.412Z,41.39
2023-06-30T10:24:31.469Z,41.31
2023-06-30T10:25:31.481Z,41.37
2023-06-30T10:26:31.429Z,41.34
2023-06-30T10:27:31.456Z,41.30
2023-06-30T10:28:31.454Z,41.31
2023-06-30T10:29:31.428Z,41.31
2023-06-30T10:30:31.564Z,41.34
2023-06-30T10:31:31.473Z,41.46
2023-06-30T10:32:31.631Z,41.49
2023-06-30T10:33:31.647Z,41.45
2023-06-30T10:34:31.612Z,41.42
2023-06-30T10:35:31.626Z,41.49
2023-06-30T10:36:31.645Z,41.49
2023-06-30T10:37:31.669Z,41.78
2023-06-30T10:38:31.701Z,41.71
2023-06-30T10:39:31.715Z,41.67
2023-06-30T10:40:31.780Z,41.67
2023-06-30T10:41:31.863Z,41.71
2023-06-30T10:42:31.853Z,41.67
2023-06-30T10:43:31.920Z,41.85
2023-06-30T10:44:31.989Z,41.81
2023-06-30T10:45:32.095Z,41.78
2023-06-30T10:46:32.122Z,41.74
2023-06-30T10:47:32.215Z,41.64
2023-06-30T10:48:32.228Z,41.59
2023-06-30T10:49:32.284Z,41.55
2023-06-30T10:50:32.336Z,41.53
2023-06-30T10:51:32.409Z,41.50
2023-06-30T10:52:32.462Z,41.44
2023-06-30T10:53:32.465Z,41.45
2023-06-30T10:54:32.566Z,41.42
2023-06-30T10:55:32.581Z,41.41
2023-06-30T10:56:32.587Z,41.47
2023-06-30T10:57:32.664Z,41.43
2023-06-30T10:58:32.661Z,41.42
2023-06-30T10:59:32.700Z,41.39
2023-06-30T11:00:32.793Z,41.39
2023-06-30T11:01:32.803Z,41.38
2023-06-30T11:02:32.893Z,41.30
2023-06-30T11:03:32.967Z,41.31
2023-06-30T11:04:33.110Z,41.27
2023-06-30T11:05:32.933Z,41.27
2023-06-30T11:06:33.045Z,41.24
2023-06-30T11:07:33.131Z,41.19
2023-06-30T11:08:33.053Z,41.20
2023-06-30T11:09:33.120Z,41.23
2023-06-30T11:10:33.215Z,41.18
2023-06-30T11:11:33.270Z,41.12
2023-06-30T11:12:33.298Z,41.12
2023-06-30T11:13:33.269Z,41.12
2023-06-30T11:14:33.346Z,41.12
2023-06-30T11:15:33.267Z,41.10
2023-06-30T11:16:33.270Z,41.09
2023-06-30T11:17:33.310Z,41.08
2023-06-30T11:18:33.379Z,41.11
2023-06-30T11:19:33.298Z,41.08
2023-06-30T11:20:33.269Z,41.04
2023-06-30T11:21:33.283Z,41.08
2023-06-30T11:22:33.282Z,41.08
2023-06-30T11:23:33.330Z,41.08
2023-06-30T11:24:33.421Z,41.03
2023-06-30T11:25:33.426Z,41.04
2023-06-30T11:26:33.458Z,41.03
2023-06-30T11:27:33.500Z,40.98
2023-06-30T11:28:33.526Z,41.02
2023-06-30T11:29:33.582Z,40.98
2023-06-30T11:30:33.603Z,41.06
2023-06-30T11:31:33.686Z,41.06
2023-06-30T11:32:33.659Z,40.96
2023-06-30T11:33:33.729Z,41.09
2023-06-30T11:34:33.784Z,41.03
2023-06-30T11:35:33.783Z,41.04
2023-06-30T11:36:33.813Z,41.08
2023-06-30T11:37:33.897Z,41.08
2023-06-30T11:38:33.849Z,41.02
2023-06-30T11:39:33.869Z,40.99
2023-06-30T11:40:33.888Z,41.00
2023-06-30T11:41:33.937Z,40.94
2023-06-30T11:42:33.965Z,40.99
2023-06-30T11:43:33.999Z,40.97
2023-06-30T11:44:34.033Z,40.94
2023-06-30T11:45:34.100Z,40.95
2023-06-30T11:46:34.171Z,40.89
2023-06-30T11:47:34.228Z,40.90
2023-06-30T11:48:34.210Z,40.89
2023-06-30T11:49:34.237Z,40.88
2023-06-30T11:50:34.251Z,40.89
2023-06-30T11:51:34.302Z,40.90
2023-06-30T11:52:34.297Z,40.92
2023-06-30T11:53:34.401Z,40.89
2023-06-30T11:54:34.415Z,40.88
2023-06-30T11:55:34.468Z,40.84
2023-06-30T11:56:34.491Z,40.85
2023-06-30T11:57:34.540Z,40.87
2023-06-30T11:58:34.581Z,40.88
2023-06-30T11:59:34.605Z,40.80
2023-06-30T12:00:34.660Z,40.83
2023-06-30T12:01:34.728Z,40.87
2023-06-30T12:02:34.772Z,40.85
2023-06-30T12:03:34.820Z,40.84
2023-06-30T12:04:34.775Z,40.85
2023-06-30T12:05:34.827Z,40.80
2023-06-30T12:06:34.748Z,40.80
2023-06-30T12:07:34.876Z,40.83
2023-06-30T12:08:34.746Z,40.80
2023-06-30T12:09:34.741Z,40.80
2023-06-30T12:10:34.743Z,40.75
2023-06-30T12:11:34.738Z,40.74
2023-06-30T12:12:34.719Z,40.73
2023-06-30T12:13:34.727Z,40.70
2023-06-30T12:14:34.788Z,40.72
2023-06-30T12:15:34.778Z,40.74
2023-06-30T12:16:34.822Z,40.67
2023-06-30T12:17:34.859Z,40.69
2023-06-30T12:18:34.837Z,40.74
2023-06-30T12:19:34.857Z,40.70
2023-06-30T12:20:34.929Z,40.69
2023-06-30T12:21:34.951Z,40.68
2023-06-30T12:22:34.989Z,40.65
2023-06-30T12:23:35.045Z,40.66
2023-06-30T12:24:35.117Z,40.58
2023-06-30T12:25:35.274Z,40.58
2023-06-30T12:26:35.151Z,40.58
2023-06-30T12:27:35.190Z,40.60
2023-06-30T12:28:35.226Z,40.53
2023-06-30T12:29:35.274Z,40.53
2023-06-30T12:30:35.324Z,40.56
2023-06-30T12:31:35.390Z,40.48
2023-06-30T12:32:35.372Z,40.48
2023-06-30T12:33:35.407Z,40.52
2023-06-30T12:34:35.528Z,40.47
2023-06-30T12:35:35.442Z,40.43
2023-06-30T12:36:35.509Z,40.44
2023-06-30T12:37:35.552Z,40.36
2023-06-30T12:38:35.592Z,40.36
2023-06-30T12:39:35.667Z,40.36
2023-06-30T12:40:35.678Z,40.27
2023-06-30T12:41:35.689Z,40.26
2023-06-30T12:42:35.721Z,40.28
2023-06-30T12:43:36.074Z,40.21
2023-06-30T12:44:35.700Z,40.23
2023-06-30T12:45:35.864Z,40.26
2023-06-30T12:46:35.807Z,40.19
2023-06-30T12:47:35.822Z,40.19
2023-06-30T12:48:35.845Z,40.19
2023-06-30T12:49:35.770Z,40.16
2023-06-30T12:50:35.861Z,40.13
2023-06-30T12:51:35.811Z,40.13
2023-06-30T12:52:35.857Z,40.10
2023-06-30T12:53:35.886Z,40.12
2023-06-30T12:54:35.884Z,40.12
2023-06-30T12:55:35.906Z,40.08
2023-06-30T12:56:35.934Z,40.08
2023-06-30T12:57:35.893Z,40.08